Time;durP1;ratioP1;P1;durP2;ratioP2;P2;SDS_P1;SDS_P2;PMS_P1;PMS_P2;Temp;Humidity;BMP_temperature;BMP_pressure;BME280_temperature;BME280_humidity;BME280_pressure;Samples;Min_cycle;Max_cycle;Signal;HPM_P1;HPM_P2
2022/04/19 00:00:18;;;;;;;1.48;1.17;;;;;;;;;;20974656;28;20080;-85
2022/04/19 00:10:20;;;;;;;1.50;1.30;;;;;;;;;;21005547;28;20040;-86
2022/04/19 00:20:22;;;;;;;1.30;1.08;;;;;;;;;;21004893;28;20040;-85
2022/04/19 00:30:23;;;;;;;1.27;1.17;;;;;;;;;;20969463;28;20048;-85
2022/04/19 00:40:26;;;;;;;1.50;1.20;;;;;;;;;;20985561;28;20048;-85
2022/04/19 00:50:28;;;;;;;1.20;1.10;;;;;;;;;;20983733;28;20074;-85
2022/04/19 01:00:30;;;;;;;2.55;1.25;;;;;;;;;;20967510;28;20521;-84
2022/04/19 01:13:17;;;;;;;1.42;1.20;;;;;;;;;;20969460;28;20044;-84
2022/04/19 01:21:44;;;;;;;2.03;1.50;;;;;;;;;;20982021;28;20075;-84
2022/04/19 01:31:47;;;;;;;1.10;1.00;;;;;;;;;;20982151;28;20136;-84
2022/04/19 01:41:50;;;;;;;1.67;1.33;;;;;;;;;;20980076;28;20044;-84
2022/04/19 01:51:53;;;;;;;1.30;1.20;;;;;;;;;;20962989;28;20494;-85
2022/04/19 02:01:55;;;;;;;1.35;1.20;;;;;;;;;;20978871;28;20143;-85
2022/04/19 02:11:57;;;;;;;1.65;1.40;;;;;;;;;;20977873;28;20599;-85
2022/04/19 02:22:22;;;;;;;1.30;1.10;;;;;;;;;;20976471;28;20070;-84
2022/04/19 02:32:24;;;;;;;1.80;1.42;;;;;;;;;;20977345;28;20486;-86
2022/04/19 02:42:26;;;;;;;1.63;1.40;;;;;;;;;;20975983;28;20130;-86
2022/04/19 02:52:28;;;;;;;1.60;1.27;;;;;;;;;;20975494;28;20105;-86
2022/04/19 03:02:30;;;;;;;1.20;1.10;;;;;;;;;;20958295;28;20052;-86
2022/04/19 03:12:32;;;;;;;2.17;1.30;;;;;;;;;;20957571;28;20044;-83
2022/04/19 03:33:10;;;;;;;2.03;1.83;;;;;;;;;;20957363;28;20478;-84
2022/04/19 03:43:12;;;;;;;1.85;1.40;;;;;;;;;;20991506;28;20049;-85
2022/04/19 03:53:14;;;;;;;2.03;1.40;;;;;;;;;;20956619;28;20076;-85
2022/04/19 04:03:16;;;;;;;1.40;1.15;;;;;;;;;;20972307;28;20443;-85
2022/04/19 04:13:18;;;;;;;1.27;1.00;;;;;;;;;;20955774;28;20080;-84
2022/04/19 04:23:20;;;;;;;1.38;1.27;;;;;;;;;;20941180;28;20506;-85
2022/04/19 04:33:22;;;;;;;2.28;1.73;;;;;;;;;;20986067;28;20510;-85
2022/04/19 04:43:24;;;;;;;1.67;1.30;;;;;;;;;;20981300;28;20048;-84
2022/04/19 04:53:28;;;;;;;2.05;1.48;;;;;;;;;;20921807;28;20506;-84
2022/04/19 05:03:47;;;;;;;1.88;1.50;;;;;;;;;;20940309;28;20055;-85
2022/04/19 05:13:51;;;;;;;2.40;1.52;;;;;;;;;;20939714;28;20037;-85
2022/04/19 05:23:54;;;;;;;1.65;1.40;;;;;;;;;;20952186;28;20145;-85
2022/04/19 05:33:58;;;;;;;2.20;1.67;;;;;;;;;;20934291;28;20044;-85
2022/04/19 05:44:00;;;;;;;1.40;1.20;;;;;;;;;;20978052;28;20489;-85
2022/04/19 05:54:02;;;;;;;2.17;1.40;;;;;;;;;;20975545;28;20068;-86
2022/04/19 06:14:27;;;;;;;1.42;1.13;;;;;;;;;;20960346;28;20496;-84
2022/04/19 06:24:29;;;;;;;2.92;1.58;;;;;;;;;;20973130;28;20062;-84
2022/04/19 06:34:31;;;;;;;2.75;1.63;;;;;;;;;;20990479;28;20140;-84
2022/04/19 06:44:41;;;;;;;3.30;1.40;;;;;;;;;;20955778;28;20044;-84
2022/04/19 06:54:51;;;;;;;1.85;1.48;;;;;;;;;;20971379;28;20052;-84
2022/04/19 07:04:53;;;;;;;2.13;1.35;;;;;;;;;;20970938;28;20055;-84
2022/04/19 07:14:55;;;;;;;3.65;1.15;;;;;;;;;;20970633;28;20441;-84
2022/04/19 07:35:38;;;;;;;4.03;1.60;;;;;;;;;;20969667;28;20080;-83
2022/04/19 07:45:40;;;;;;;2.38;1.30;;;;;;;;;;20953067;28;20056;-84
2022/04/19 07:55:42;;;;;;;1.85;1.30;;;;;;;;;;20952419;28;20563;-82
2022/04/19 08:05:45;;;;;;;5.50;1.52;;;;;;;;;;20968204;28;20600;-83
2022/04/19 08:15:48;;;;;;;2.88;1.40;;;;;;;;;;20950637;28;20037;-83
2022/04/19 08:25:49;;;;;;;6.30;1.70;;;;;;;;;;21000159;28;20091;-82
2022/04/19 08:35:51;;;;;;;2.70;1.30;;;;;;;;;;20982733;28;20504;-85
2022/04/19 08:45:54;;;;;;;2.58;1.40;;;;;;;;;;20966427;28;20102;-84
2022/04/19 09:06:16;;;;;;;1.10;1.00;;;;;;;;;;20979772;28;20060;-84
2022/04/19 09:16:24;;;;;;;1.42;1.10;;;;;;;;;;20991858;28;20130;-84
2022/04/19 09:26:42;;;;;;;2.38;1.20;;;;;;;;;;20975736;28;20139;-83
2022/04/19 09:36:43;;;;;;;1.55;1.00;;;;;;;;;;20982227;28;20036;-83
2022/04/19 09:47:02;;;;;;;1.95;1.00;;;;;;;;;;20976543;28;20436;-83
2022/04/19 09:57:09;;;;;;;1.17;1.02;;;;;;;;;;20955596;28;20047;-83
2022/04/19 10:17:16;;;;;;;3.40;1.13;;;;;;;;;;20974008;28;20049;-83
2022/04/19 10:27:18;;;;;;;1.42;0.93;;;;;;;;;;20970187;28;20418;-81
2022/04/19 10:37:23;;;;;;;1.45;1.00;;;;;;;;;;20967444;28;20139;-82
2022/04/19 10:47:25;;;;;;;1.08;0.90;;;;;;;;;;20958241;28;20052;-82
2022/04/19 11:08:17;;;;;;;1.00;0.90;;;;;;;;;;20917964;28;20139;-81
2022/04/19 11:18:23;;;;;;;1.23;0.80;;;;;;;;;;20966369;28;20587;-82
2022/04/19 11:28:30;;;;;;;1.73;0.93;;;;;;;;;;20964698;28;20138;-81
2022/04/19 11:38:33;;;;;;;1.02;0.90;;;;;;;;;;20994171;28;20048;-82
2022/04/19 11:48:37;;;;;;;1.75;0.85;;;;;;;;;;21004028;28;20244;-81
2022/04/19 11:58:40;;;;;;;1.27;0.80;;;;;;;;;;20985189;28;20041;-81
2022/04/19 12:08:43;;;;;;;1.50;1.20;;;;;;;;;;21000500;28;20052;-81
2022/04/19 12:18:52;;;;;;;0.70;0.70;;;;;;;;;;21000271;28;20056;-82
2022/04/19 12:28:53;;;;;;;0.90;0.70;;;;;;;;;;21000280;28;20060;-82
2022/04/19 12:39:00;;;;;;;1.52;1.10;;;;;;;;;;20999638;28;20054;-81
2022/04/19 12:49:03;;;;;;;0.98;0.88;;;;;;;;;;20996797;28;20573;-81
2022/04/19 12:59:05;;;;;;;1.17;0.75;;;;;;;;;;20997206;28;20052;-81
2022/04/19 13:19:27;;;;;;;1.08;0.68;;;;;;;;;;20995876;28;20052;-82
2022/04/19 13:29:29;;;;;;;0.95;0.60;;;;;;;;;;20978057;28;20577;-81
2022/04/19 13:39:31;;;;;;;0.95;0.85;;;;;;;;;;20993980;28;20052;-81
2022/04/19 13:49:33;;;;;;;0.63;0.60;;;;;;;;;;20992750;28;20044;-82
2022/04/19 13:59:34;;;;;;;0.60;0.60;;;;;;;;;;20992305;28;20040;-82
2022/04/19 14:09:36;;;;;;;1.13;0.88;;;;;;;;;;20992360;28;20102;-81
2022/04/19 14:19:39;;;;;;;0.82;0.60;;;;;;;;;;20991618;28;20071;-81
2022/04/19 14:40:01;;;;;;;0.85;0.75;;;;;;;;;;20972388;28;20071;-81
2022/04/19 14:50:03;;;;;;;0.80;0.60;;;;;;;;;;20970306;28;20079;-81
2022/04/19 15:00:05;;;;;;;1.35;0.80;;;;;;;;;;20983863;28;20078;-81
2022/04/19 15:10:07;;;;;;;1.60;0.80;;;;;;;;;;20967962;28;20413;-82
2022/04/19 15:20:29;;;;;;;1.80;0.70;;;;;;;;;;20935694;28;20068;-81
2022/04/19 15:30:32;;;;;;;1.05;0.80;;;;;;;;;;20886951;28;20060;-82
2022/04/19 15:40:34;;;;;;;0.80;0.70;;;;;;;;;;20904836;28;20049;-82
2022/04/19 15:50:37;;;;;;;1.58;0.70;;;;;;;;;;20886849;28;20049;-82
2022/04/19 16:00:39;;;;;;;0.77;0.77;;;;;;;;;;20903875;28;20041;-85
2022/04/19 16:10:41;;;;;;;1.38;0.80;;;;;;;;;;20869278;28;20072;-84
2022/04/19 16:31:07;;;;;;;0.63;0.60;;;;;;;;;;20902516;28;20052;-84
2022/04/19 16:41:11;;;;;;;1.07;0.80;;;;;;;;;;20944350;28;20040;-85
2022/04/19 16:51:13;;;;;;;0.50;0.50;;;;;;;;;;20997669;28;20306;-85
2022/04/19 17:01:14;;;;;;;1.17;0.80;;;;;;;;;;20964016;28;20056;-83
2022/04/19 17:11:16;;;;;;;2.65;0.90;;;;;;;;;;20962754;28;20049;-84
2022/04/19 17:21:18;;;;;;;1.23;1.13;;;;;;;;;;20995643;28;20111;-84
2022/04/19 17:31:20;;;;;;;1.42;1.02;;;;;;;;;;20995289;28;20079;-84
2022/04/19 17:41:22;;;;;;;1.30;0.80;;;;;;;;;;20977220;28;20044;-84
2022/04/19 18:01:44;;;;;;;1.45;1.08;;;;;;;;;;20967708;28;20055;-82
2022/04/19 18:11:46;;;;;;;1.67;1.20;;;;;;;;;;20978082;28;20079;-81
2022/04/19 18:32:08;;;;;;;3.33;2.13;;;;;;;;;;20931049;28;20049;-82
2022/04/19 18:42:10;;;;;;;4.57;2.65;;;;;;;;;;20946119;28;20299;-85
2022/04/19 18:52:12;;;;;;;2.80;1.92;;;;;;;;;;20922915;28;20079;-83
2022/04/19 19:02:21;;;;;;;3.72;2.63;;;;;;;;;;20943412;28;20115;-82
2022/04/19 19:12:24;;;;;;;3.95;2.50;;;;;;;;;;20912979;28;20047;-84
2022/04/19 19:22:28;;;;;;;2.10;1.80;;;;;;;;;;20971372;28;20083;-83
2022/04/19 19:32:30;;;;;;;3.55;1.98;;;;;;;;;;20927200;28;20067;-83
2022/04/19 19:42:31;;;;;;;5.43;2.40;;;;;;;;;;20957247;28;20498;-83
2022/04/19 19:52:33;;;;;;;4.20;2.03;;;;;;;;;;20953819;28;20044;-83
2022/04/19 20:02:35;;;;;;;3.38;1.63;;;;;;;;;;20947639;28;20044;-84
2022/04/19 20:12:37;;;;;;;3.67;2.15;;;;;;;;;;20966722;28;20141;-83
2022/04/19 20:22:39;;;;;;;2.92;1.58;;;;;;;;;;20975270;28;20052;-84
2022/04/19 20:32:41;;;;;;;2.70;1.58;;;;;;;;;;20930160;28;20059;-85
2022/04/19 20:42:43;;;;;;;1.80;1.25;;;;;;;;;;20932432;28;20046;-83
2022/04/19 20:52:46;;;;;;;2.65;1.30;;;;;;;;;;20980016;28;20139;-83
2022/04/19 21:02:48;;;;;;;1.40;1.20;;;;;;;;;;20997079;28;20052;-83
2022/04/19 21:12:49;;;;;;;1.98;1.63;;;;;;;;;;20966431;28;20298;-83
2022/04/19 21:22:51;;;;;;;2.88;1.40;;;;;;;;;;20953523;28;20062;-83
2022/04/19 21:32:54;;;;;;;1.55;1.20;;;;;;;;;;20982428;28;20068;-81
2022/04/19 21:42:56;;;;;;;1.80;1.50;;;;;;;;;;20989399;28;20048;-81
2022/04/19 21:52:57;;;;;;;1.65;1.10;;;;;;;;;;20971435;28;20044;-82
2022/04/19 22:02:59;;;;;;;1.13;0.90;;;;;;;;;;20987886;28;20044;-82
2022/04/19 22:13:01;;;;;;;1.60;0.98;;;;;;;;;;20984829;28;20045;-80
2022/04/19 22:23:03;;;;;;;1.40;1.15;;;;;;;;;;20961598;28;20053;-81
2022/04/19 22:33:04;;;;;;;1.45;1.15;;;;;;;;;;20947991;28;20040;-81
2022/04/19 22:43:08;;;;;;;1.45;1.05;;;;;;;;;;20982278;28;20045;-81
2022/04/19 22:53:09;;;;;;;1.27;1.10;;;;;;;;;;20979194;28;20045;-81
2022/04/19 23:03:11;;;;;;;1.63;0.90;;;;;;;;;;20961728;28;20048;-81
2022/04/19 23:13:13;;;;;;;1.90;1.05;;;;;;;;;;20962309;28;20040;-81
2022/04/19 23:23:15;;;;;;;2.10;0.80;;;;;;;;;;20963883;28;20045;-81
2022/04/19 23:33:17;;;;;;;1.33;0.90;;;;;;;;;;20989219;28;20479;-81
2022/04/19 23:43:18;;;;;;;1.02;0.70;;;;;;;;;;20991970;28;20410;-80
2022/04/19 23:53:20;;;;;;;1.30;0.80;;;;;;;;;;20996799;28;20090;-81
